sensor_id;sensor_type;location;lat;lon;timestamp;temperature;humidity
28175;SHT30;59417;44.788;10.334;2022-10-19T00:01:49;18.46;73.98
28175;SHT30;59417;44.788;10.334;2022-10-19T00:04:14;18.48;74.01
28175;SHT30;59417;44.788;10.334;2022-10-19T00:06:39;18.39;73.94
28175;SHT30;59417;44.788;10.334;2022-10-19T00:09:06;18.33;74.35
28175;SHT30;59417;44.788;10.334;2022-10-19T00:11:32;18.30;74.22
28175;SHT30;59417;44.788;10.334;2022-10-19T00:13:58;18.35;74.06
28175;SHT30;59417;44.788;10.334;2022-10-19T00:16:25;18.36;74.24
28175;SHT30;59417;44.788;10.334;2022-10-19T00:18:51;18.33;74.29
28175;SHT30;59417;44.788;10.334;2022-10-19T00:21:17;18.19;74.76
28175;SHT30;59417;44.788;10.334;2022-10-19T00:23:44;18.22;74.61
28175;SHT30;59417;44.788;10.334;2022-10-19T00:26:10;18.18;74.65
28175;SHT30;59417;44.788;10.334;2022-10-19T00:28:35;18.19;74.40
28175;SHT30;59417;44.788;10.334;2022-10-19T00:31:05;18.21;74.22
28175;SHT30;59417;44.788;10.334;2022-10-19T00:33:31;18.22;74.30
28175;SHT30;59417;44.788;10.334;2022-10-19T00:35:57;18.30;73.66
28175;SHT30;59417;44.788;10.334;2022-10-19T00:38:23;18.29;73.85
28175;SHT30;59417;44.788;10.334;2022-10-19T00:40:48;18.35;73.72
28175;SHT30;59417;44.788;10.334;2022-10-19T00:43:48;18.42;73.16
28175;SHT30;59417;44.788;10.334;2022-10-19T00:46:02;18.33;73.63
28175;SHT30;59417;44.788;10.334;2022-10-19T00:48:29;18.29;73.91
28175;SHT30;59417;44.788;10.334;2022-10-19T00:50:56;18.25;73.91
28175;SHT30;59417;44.788;10.334;2022-10-19T00:53:22;18.19;74.25
28175;SHT30;59417;44.788;10.334;2022-10-19T00:55:49;18.15;74.15
28175;SHT30;59417;44.788;10.334;2022-10-19T00:58:15;18.18;74.00
28175;SHT30;59417;44.788;10.334;2022-10-19T01:00:40;18.18;74.04
28175;SHT30;59417;44.788;10.334;2022-10-19T01:03:06;18.19;73.96
28175;SHT30;59417;44.788;10.334;2022-10-19T01:05:33;18.15;74.10
28175;SHT30;59417;44.788;10.334;2022-10-19T01:07:58;18.09;74.01
28175;SHT30;59417;44.788;10.334;2022-10-19T01:10:48;18.19;73.95
28175;SHT30;59417;44.788;10.334;2022-10-19T01:15:54;18.05;74.03
28175;SHT30;59417;44.788;10.334;2022-10-19T01:47:05;18.08;73.84
28175;SHT30;59417;44.788;10.334;2022-10-19T01:49:34;18.05;74.17
28175;SHT30;59417;44.788;10.334;2022-10-19T01:52:03;18.01;73.99
28175;SHT30;59417;44.788;10.334;2022-10-19T01:54:31;17.97;74.20
28175;SHT30;59417;44.788;10.334;2022-10-19T01:56:59;17.90;74.22
28175;SHT30;59417;44.788;10.334;2022-10-19T01:59:26;17.91;74.23
28175;SHT30;59417;44.788;10.334;2022-10-19T02:01:52;17.87;74.42
28175;SHT30;59417;44.788;10.334;2022-10-19T02:04:19;17.78;74.69
28175;SHT30;59417;44.788;10.334;2022-10-19T02:06:45;17.74;74.81
28175;SHT30;59417;44.788;10.334;2022-10-19T02:09:10;17.77;74.80
28175;SHT30;59417;44.788;10.334;2022-10-19T02:11:42;17.71;74.75
28175;SHT30;59417;44.788;10.334;2022-10-19T02:14:08;17.75;74.82
28175;SHT30;59417;44.788;10.334;2022-10-19T02:16:37;17.77;74.55
28175;SHT30;59417;44.788;10.334;2022-10-19T02:19:05;17.80;74.41
28175;SHT30;59417;44.788;10.334;2022-10-19T02:21:32;17.78;74.56
28175;SHT30;59417;44.788;10.334;2022-10-19T02:23:58;17.74;74.67
28175;SHT30;59417;44.788;10.334;2022-10-19T02:26:24;17.69;74.78
28175;SHT30;59417;44.788;10.334;2022-10-19T02:28:49;17.64;74.89
28175;SHT30;59417;44.788;10.334;2022-10-19T02:31:15;17.55;75.96
28175;SHT30;59417;44.788;10.334;2022-10-19T02:33:41;17.39;75.81
28175;SHT30;59417;44.788;10.334;2022-10-19T02:36:06;17.36;75.75
28175;SHT30;59417;44.788;10.334;2022-10-19T02:38:32;17.27;75.91
28175;SHT30;59417;44.788;10.334;2022-10-19T02:41:13;17.19;76.19
28175;SHT30;59417;44.788;10.334;2022-10-19T02:43:40;17.33;75.90
28175;SHT30;59417;44.788;10.334;2022-10-19T02:46:12;17.36;75.51
28175;SHT30;59417;44.788;10.334;2022-10-19T02:48:40;17.27;76.31
28175;SHT30;59417;44.788;10.334;2022-10-19T02:51:06;17.10;76.60
28175;SHT30;59417;44.788;10.334;2022-10-19T02:53:31;17.08;76.63
28175;SHT30;59417;44.788;10.334;2022-10-19T02:55:57;17.15;76.30
28175;SHT30;59417;44.788;10.334;2022-10-19T02:58:22;17.19;75.96
28175;SHT30;59417;44.788;10.334;2022-10-19T03:00:47;17.16;76.43
28175;SHT30;59417;44.788;10.334;2022-10-19T03:03:13;17.08;76.33
28175;SHT30;59417;44.788;10.334;2022-10-19T03:05:38;17.06;76.83
28175;SHT30;59417;44.788;10.334;2022-10-19T03:08:04;17.13;76.40
28175;SHT30;59417;44.788;10.334;2022-10-19T03:10:29;17.30;76.17
28175;SHT30;59417;44.788;10.334;2022-10-19T03:12:56;17.22;76.12
28175;SHT30;59417;44.788;10.334;2022-10-19T03:15:22;17.26;75.99
28175;SHT30;59417;44.788;10.334;2022-10-19T03:17:51;17.36;75.50
28175;SHT30;59417;44.788;10.334;2022-10-19T03:20:16;17.34;75.63
28175;SHT30;59417;44.788;10.334;2022-10-19T03:22:42;17.31;75.49
28175;SHT30;59417;44.788;10.334;2022-10-19T03:25:07;17.34;75.31
28175;SHT30;59417;44.788;10.334;2022-10-19T03:27:33;17.30;75.43
28175;SHT30;59417;44.788;10.334;2022-10-19T03:29:58;17.20;75.82
28175;SHT30;59417;44.788;10.334;2022-10-19T03:32:23;17.06;76.38
28175;SHT30;59417;44.788;10.334;2022-10-19T03:34:49;16.99;76.39
28175;SHT30;59417;44.788;10.334;2022-10-19T03:37:14;16.99;76.48
28175;SHT30;59417;44.788;10.334;2022-10-19T03:39:39;16.98;76.45
28175;SHT30;59417;44.788;10.334;2022-10-19T03:42:05;16.96;76.44
28175;SHT30;59417;44.788;10.334;2022-10-19T03:44:30;16.99;76.38
28175;SHT30;59417;44.788;10.334;2022-10-19T03:46:56;17.05;76.08
28175;SHT30;59417;44.788;10.334;2022-10-19T03:49:21;17.05;76.00
28175;SHT30;59417;44.788;10.334;2022-10-19T03:51:47;17.02;76.45
28175;SHT30;59417;44.788;10.334;2022-10-19T03:54:13;17.00;76.31
28175;SHT30;59417;44.788;10.334;2022-10-19T03:56:39;16.98;76.29
28175;SHT30;59417;44.788;10.334;2022-10-19T03:59:05;16.95;76.29
28175;SHT30;59417;44.788;10.334;2022-10-19T04:01:38;16.92;76.55
28175;SHT30;59417;44.788;10.334;2022-10-19T04:04:16;16.95;76.49
28175;SHT30;59417;44.788;10.334;2022-10-19T04:06:44;16.88;76.57
28175;SHT30;59417;44.788;10.334;2022-10-19T04:09:13;16.96;76.23
28175;SHT30;59417;44.788;10.334;2022-10-19T04:11:40;16.92;76.43
28175;SHT30;59417;44.788;10.334;2022-10-19T04:14:05;16.91;76.12
28175;SHT30;59417;44.788;10.334;2022-10-19T04:16:31;16.94;76.06
28175;SHT30;59417;44.788;10.334;2022-10-19T04:18:57;16.94;75.84
28175;SHT30;59417;44.788;10.334;2022-10-19T04:23:51;16.95;76.05
28175;SHT30;59417;44.788;10.334;2022-10-19T04:26:17;16.95;76.42
28175;SHT30;59417;44.788;10.334;2022-10-19T04:28:43;17.09;75.58
28175;SHT30;59417;44.788;10.334;2022-10-19T04:31:09;17.19;75.43
28175;SHT30;59417;44.788;10.334;2022-10-19T04:33:34;17.13;75.40
28175;SHT30;59417;44.788;10.334;2022-10-19T04:36:00;17.09;75.45
28175;SHT30;59417;44.788;10.334;2022-10-19T04:38:27;17.05;75.48
28175;SHT30;59417;44.788;10.334;2022-10-19T04:40:53;17.03;75.50
28175;SHT30;59417;44.788;10.334;2022-10-19T04:43:20;17.02;75.67
28175;SHT30;59417;44.788;10.334;2022-10-19T04:46:04;16.95;75.93
28175;SHT30;59417;44.788;10.334;2022-10-19T04:48:48;16.99;75.74
28175;SHT30;59417;44.788;10.334;2022-10-19T04:51:20;17.08;75.52
28175;SHT30;59417;44.788;10.334;2022-10-19T04:53:57;17.05;75.93
28175;SHT30;59417;44.788;10.334;2022-10-19T04:56:24;17.05;75.79
28175;SHT30;59417;44.788;10.334;2022-10-19T04:59:11;16.98;76.05
28175;SHT30;59417;44.788;10.334;2022-10-19T05:01:42;17.00;75.81
28175;SHT30;59417;44.788;10.334;2022-10-19T05:04:14;17.03;75.99
28175;SHT30;59417;44.788;10.334;2022-10-19T05:06:40;17.02;75.79
28175;SHT30;59417;44.788;10.334;2022-10-19T05:09:06;16.88;76.23
28175;SHT30;59417;44.788;10.334;2022-10-19T05:11:31;16.88;76.30
28175;SHT30;59417;44.788;10.334;2022-10-19T05:13:57;16.85;76.49
28175;SHT30;59417;44.788;10.334;2022-10-19T05:16:22;16.84;76.58
28175;SHT30;59417;44.788;10.334;2022-10-19T05:18:51;16.86;76.59
28175;SHT30;59417;44.788;10.334;2022-10-19T05:21:19;16.80;76.93
28175;SHT30;59417;44.788;10.334;2022-10-19T05:23:50;16.85;76.71
28175;SHT30;59417;44.788;10.334;2022-10-19T05:26:17;16.80;77.04
28175;SHT30;59417;44.788;10.334;2022-10-19T05:28:58;16.89;76.82
28175;SHT30;59417;44.788;10.334;2022-10-19T05:31:27;16.86;77.24
28175;SHT30;59417;44.788;10.334;2022-10-19T05:33:53;16.95;77.09
28175;SHT30;59417;44.788;10.334;2022-10-19T05:36:46;16.88;76.68
28175;SHT30;59417;44.788;10.334;2022-10-19T05:39:12;16.84;77.20
28175;SHT30;59417;44.788;10.334;2022-10-19T05:41:38;16.73;77.24
28175;SHT30;59417;44.788;10.334;2022-10-19T05:44:15;16.69;77.25
28175;SHT30;59417;44.788;10.334;2022-10-19T05:47:08;16.69;77.36
28175;SHT30;59417;44.788;10.334;2022-10-19T05:49:39;16.69;77.30
28175;SHT30;59417;44.788;10.334;2022-10-19T05:52:05;16.73;77.52
28175;SHT30;59417;44.788;10.334;2022-10-19T05:54:30;16.80;77.48
28175;SHT30;59417;44.788;10.334;2022-10-19T05:56:56;16.84;77.17
28175;SHT30;59417;44.788;10.334;2022-10-19T05:59:21;16.86;76.95
28175;SHT30;59417;44.788;10.334;2022-10-19T06:01:47;16.82;77.41
28175;SHT30;59417;44.788;10.334;2022-10-19T06:04:12;16.89;77.06
28175;SHT30;59417;44.788;10.334;2022-10-19T06:06:39;16.89;76.84
28175;SHT30;59417;44.788;10.334;2022-10-19T06:09:05;16.84;77.25
28175;SHT30;59417;44.788;10.334;2022-10-19T06:11:31;16.85;76.97
28175;SHT30;59417;44.788;10.334;2022-10-19T06:14:02;16.76;77.00
28175;SHT30;59417;44.788;10.334;2022-10-19T06:16:28;16.73;77.16
28175;SHT30;59417;44.788;10.334;2022-10-19T06:18:54;16.71;77.32
28175;SHT30;59417;44.788;10.334;2022-10-19T06:21:21;16.64;77.42
28175;SHT30;59417;44.788;10.334;2022-10-19T06:23:51;16.65;77.81
28175;SHT30;59417;44.788;10.334;2022-10-19T06:26:16;16.69;77.57
28175;SHT30;59417;44.788;10.334;2022-10-19T06:28:42;16.86;77.36
28175;SHT30;59417;44.788;10.334;2022-10-19T06:31:07;16.75;77.42
28175;SHT30;59417;44.788;10.334;2022-10-19T06:33:33;16.79;77.47
28175;SHT30;59417;44.788;10.334;2022-10-19T06:36:08;16.88;77.39
28175;SHT30;59417;44.788;10.334;2022-10-19T06:54:51;17.23;76.32
28175;SHT30;59417;44.788;10.334;2022-10-19T06:57:19;17.24;76.50
28175;SHT30;59417;44.788;10.334;2022-10-19T06:59:45;17.24;76.18
28175;SHT30;59417;44.788;10.334;2022-10-19T07:02:12;17.30;76.64
28175;SHT30;59417;44.788;10.334;2022-10-19T07:04:38;17.33;76.05
28175;SHT30;59417;44.788;10.334;2022-10-19T07:07:04;17.41;76.04
28175;SHT30;59417;44.788;10.334;2022-10-19T07:09:30;17.46;75.73
28175;SHT30;59417;44.788;10.334;2022-10-19T07:11:55;17.47;75.70
28175;SHT30;59417;44.788;10.334;2022-10-19T07:14:21;17.46;75.86
28175;SHT30;59417;44.788;10.334;2022-10-19T07:16:49;17.51;76.05
28175;SHT30;59417;44.788;10.334;2022-10-19T07:19:16;17.58;76.01
28175;SHT30;59417;44.788;10.334;2022-10-19T07:21:41;17.70;75.55
28175;SHT30;59417;44.788;10.334;2022-10-19T07:24:08;17.78;75.17
28175;SHT30;59417;44.788;10.334;2022-10-19T07:26:34;17.90;75.01
28175;SHT30;59417;44.788;10.334;2022-10-19T07:29:00;17.90;75.42
28175;SHT30;59417;44.788;10.334;2022-10-19T07:31:28;17.92;75.80
28175;SHT30;59417;44.788;10.334;2022-10-19T07:33:59;18.12;74.24
28175;SHT30;59417;44.788;10.334;2022-10-19T07:36:25;18.08;74.38
28175;SHT30;59417;44.788;10.334;2022-10-19T07:38:51;18.04;75.07
28175;SHT30;59417;44.788;10.334;2022-10-19T07:41:19;18.15;75.14
28175;SHT30;59417;44.788;10.334;2022-10-19T07:43:46;18.26;74.58
28175;SHT30;59417;44.788;10.334;2022-10-19T07:46:15;18.29;74.53
28175;SHT30;59417;44.788;10.334;2022-10-19T07:48:41;18.30;74.75
28175;SHT30;59417;44.788;10.334;2022-10-19T07:51:08;18.45;74.10
28175;SHT30;59417;44.788;10.334;2022-10-19T07:53:35;18.41;74.60
28175;SHT30;59417;44.788;10.334;2022-10-19T07:56:09;18.51;74.42
28175;SHT30;59417;44.788;10.334;2022-10-19T07:58:35;18.59;74.70
28175;SHT30;59417;44.788;10.334;2022-10-19T08:01:06;18.69;74.49
28175;SHT30;59417;44.788;10.334;2022-10-19T08:03:33;18.70;75.12
28175;SHT30;59417;44.788;10.334;2022-10-19T08:06:03;18.74;74.55
28175;SHT30;59417;44.788;10.334;2022-10-19T08:08:29;18.83;74.75
28175;SHT30;59417;44.788;10.334;2022-10-19T08:10:55;18.77;74.80
28175;SHT30;59417;44.788;10.334;2022-10-19T08:13:21;18.73;75.15
28175;SHT30;59417;44.788;10.334;2022-10-19T08:15:46;18.76;75.47
28175;SHT30;59417;44.788;10.334;2022-10-19T08:18:12;18.80;74.54
28175;SHT30;59417;44.788;10.334;2022-10-19T08:20:41;18.76;75.15
28175;SHT30;59417;44.788;10.334;2022-10-19T08:23:07;18.81;74.97
28175;SHT30;59417;44.788;10.334;2022-10-19T08:25:33;18.94;74.70
28175;SHT30;59417;44.788;10.334;2022-10-19T08:27:58;18.91;74.80
28175;SHT30;59417;44.788;10.334;2022-10-19T08:30:24;18.94;74.86
28175;SHT30;59417;44.788;10.334;2022-10-19T08:32:49;19.14;74.49
28175;SHT30;59417;44.788;10.334;2022-10-19T08:35:15;19.25;73.69
28175;SHT30;59417;44.788;10.334;2022-10-19T08:37:41;19.30;73.91
28175;SHT30;59417;44.788;10.334;2022-10-19T08:40:16;19.41;74.10
28175;SHT30;59417;44.788;10.334;2022-10-19T08:42:51;19.51;73.71
28175;SHT30;59417;44.788;10.334;2022-10-19T08:45:32;19.54;73.36
28175;SHT30;59417;44.788;10.334;2022-10-19T08:48:03;19.57;73.22
28175;SHT30;59417;44.788;10.334;2022-10-19T08:50:39;19.62;72.89
28175;SHT30;59417;44.788;10.334;2022-10-19T08:53:13;19.70;72.74
28175;SHT30;59417;44.788;10.334;2022-10-19T08:55:45;19.75;72.94
28175;SHT30;59417;44.788;10.334;2022-10-19T09:01:52;19.78;72.74
28175;SHT30;59417;44.788;10.334;2022-10-19T09:04:39;19.69;72.72
28175;SHT30;59417;44.788;10.334;2022-10-19T09:07:38;19.89;72.24
28175;SHT30;59417;44.788;10.334;2022-10-19T09:10:19;20.05;72.15
28175;SHT30;59417;44.788;10.334;2022-10-19T09:15:47;20.19;71.51
28175;SHT30;59417;44.788;10.334;2022-10-19T09:18:33;20.27;71.24
28175;SHT30;59417;44.788;10.334;2022-10-19T09:21:20;20.37;70.72
28175;SHT30;59417;44.788;10.334;2022-10-19T09:24:03;20.34;70.57
28175;SHT30;59417;44.788;10.334;2022-10-19T09:26:36;20.30;70.61
28175;SHT30;59417;44.788;10.334;2022-10-19T09:31:40;20.55;70.39
28175;SHT30;59417;44.788;10.334;2022-10-19T09:34:14;20.80;69.78
28175;SHT30;59417;44.788;10.334;2022-10-19T09:36:44;20.82;69.22
28175;SHT30;59417;44.788;10.334;2022-10-19T09:39:12;20.96;69.98
28175;SHT30;59417;44.788;10.334;2022-10-19T09:41:57;21.19;68.61
28175;SHT30;59417;44.788;10.334;2022-10-19T09:44:24;21.19;67.62
28175;SHT30;59417;44.788;10.334;2022-10-19T09:47:45;21.14;68.34
28175;SHT30;59417;44.788;10.334;2022-10-19T09:49:50;21.12;69.15
28175;SHT30;59417;44.788;10.334;2022-10-19T09:52:39;21.31;69.12
28175;SHT30;59417;44.788;10.334;2022-10-19T09:57:45;21.74;67.42
28175;SHT30;59417;44.788;10.334;2022-10-19T10:00:22;21.86;66.65
28175;SHT30;59417;44.788;10.334;2022-10-19T10:02:54;22.04;65.92
28175;SHT30;59417;44.788;10.334;2022-10-19T10:05:37;22.11;65.80
28175;SHT30;59417;44.788;10.334;2022-10-19T10:08:19;22.28;65.89
28175;SHT30;59417;44.788;10.334;2022-10-19T10:13:35;22.55;65.57
28175;SHT30;59417;44.788;10.334;2022-10-19T10:16:09;22.58;64.89
28175;SHT30;59417;44.788;10.334;2022-10-19T10:18:47;22.71;63.98
28175;SHT30;59417;44.788;10.334;2022-10-19T10:21:20;22.79;64.04
28175;SHT30;59417;44.788;10.334;2022-10-19T10:24:05;22.85;63.01
28175;SHT30;59417;44.788;10.334;2022-10-19T10:26:37;22.98;63.83
28175;SHT30;59417;44.788;10.334;2022-10-19T10:29:33;23.09;63.61
28175;SHT30;59417;44.788;10.334;2022-10-19T10:32:05;23.20;63.75
28175;SHT30;59417;44.788;10.334;2022-10-19T10:37:16;23.43;63.27
28175;SHT30;59417;44.788;10.334;2022-10-19T10:39:50;23.47;62.33
28175;SHT30;59417;44.788;10.334;2022-10-19T10:42:21;23.46;61.88
28175;SHT30;59417;44.788;10.334;2022-10-19T10:44:52;23.54;61.73
28175;SHT30;59417;44.788;10.334;2022-10-19T10:47:20;23.61;61.92
28175;SHT30;59417;44.788;10.334;2022-10-19T10:50:02;23.64;61.73
28175;SHT30;59417;44.788;10.334;2022-10-19T10:52:30;23.51;61.00
28175;SHT30;59417;44.788;10.334;2022-10-19T10:55:02;23.40;61.10
28175;SHT30;59417;44.788;10.334;2022-10-19T10:57:49;23.47;61.89
28175;SHT30;59417;44.788;10.334;2022-10-19T11:00:21;23.57;62.70
28175;SHT30;59417;44.788;10.334;2022-10-19T11:02:56;23.43;61.14
28175;SHT30;59417;44.788;10.334;2022-10-19T11:05:28;23.18;61.25
28175;SHT30;59417;44.788;10.334;2022-10-19T11:08:02;23.18;61.73
28175;SHT30;59417;44.788;10.334;2022-10-19T11:10:35;23.23;62.50
28175;SHT30;59417;44.788;10.334;2022-10-19T11:13:11;23.39;63.10
28175;SHT30;59417;44.788;10.334;2022-10-19T11:15:49;23.61;62.76
28175;SHT30;59417;44.788;10.334;2022-10-19T11:18:40;23.81;59.71
28175;SHT30;59417;44.788;10.334;2022-10-19T11:27:03;23.65;62.08
28175;SHT30;59417;44.788;10.334;2022-10-19T11:30:06;23.78;61.74
28175;SHT30;59417;44.788;10.334;2022-10-19T11:46:20;24.29;60.33
28175;SHT30;59417;44.788;10.334;2022-10-19T12:00:00;24.36;58.52
28175;SHT30;59417;44.788;10.334;2022-10-19T12:11:23;24.45;60.81
28175;SHT30;59417;44.788;10.334;2022-10-19T12:14:02;24.52;61.11
28175;SHT30;59417;44.788;10.334;2022-10-19T12:16:53;24.52;60.41
28175;SHT30;59417;44.788;10.334;2022-10-19T12:19:42;24.56;60.47
28175;SHT30;59417;44.788;10.334;2022-10-19T12:22:20;24.59;60.11
28175;SHT30;59417;44.788;10.334;2022-10-19T12:24:51;24.60;60.77
28175;SHT30;59417;44.788;10.334;2022-10-19T12:27:29;24.52;60.51
28175;SHT30;59417;44.788;10.334;2022-10-19T12:30:04;24.42;60.07
28175;SHT30;59417;44.788;10.334;2022-10-19T12:32:38;24.14;60.25
28175;SHT30;59417;44.788;10.334;2022-10-19T12:38:14;23.98;60.71
28175;SHT30;59417;44.788;10.334;2022-10-19T12:40:50;24.00;61.19
28175;SHT30;59417;44.788;10.334;2022-10-19T12:43:59;24.08;63.00
28175;SHT30;59417;44.788;10.334;2022-10-19T12:46:45;24.36;60.79
28175;SHT30;59417;44.788;10.334;2022-10-19T12:49:34;24.32;59.99
28175;SHT30;59417;44.788;10.334;2022-10-19T12:52:04;24.18;61.27
28175;SHT30;59417;44.788;10.334;2022-10-19T12:54:35;24.19;61.79
28175;SHT30;59417;44.788;10.334;2022-10-19T12:57:40;24.31;59.69
28175;SHT30;59417;44.788;10.334;2022-10-19T13:00:24;24.31;59.56
28175;SHT30;59417;44.788;10.334;2022-10-19T13:03:01;24.32;60.85
28175;SHT30;59417;44.788;10.334;2022-10-19T13:05:32;24.43;59.76
28175;SHT30;59417;44.788;10.334;2022-10-19T13:08:06;24.41;59.95
28175;SHT30;59417;44.788;10.334;2022-10-19T13:10:32;24.36;61.00
28175;SHT30;59417;44.788;10.334;2022-10-19T13:13:04;24.39;60.73
28175;SHT30;59417;44.788;10.334;2022-10-19T13:18:12;24.45;61.06
28175;SHT30;59417;44.788;10.334;2022-10-19T13:20:50;24.43;60.62
28175;SHT30;59417;44.788;10.334;2022-10-19T13:25:45;24.48;60.62
28175;SHT30;59417;44.788;10.334;2022-10-19T13:41:25;24.25;60.83
28175;SHT30;59417;44.788;10.334;2022-10-19T13:49:13;24.24;60.63
28175;SHT30;59417;44.788;10.334;2022-10-19T13:55:01;24.25;60.40
28175;SHT30;59417;44.788;10.334;2022-10-19T14:00:36;24.22;60.50
28175;SHT30;59417;44.788;10.334;2022-10-19T14:06:29;24.14;61.07
28175;SHT30;59417;44.788;10.334;2022-10-19T14:11:51;24.12;61.32
28175;SHT30;59417;44.788;10.334;2022-10-19T14:14:21;24.02;61.23
28175;SHT30;59417;44.788;10.334;2022-10-19T14:16:58;24.01;61.39
28175;SHT30;59417;44.788;10.334;2022-10-19T14:19:46;24.09;61.17
28175;SHT30;59417;44.788;10.334;2022-10-19T14:22:27;24.08;61.08
28175;SHT30;59417;44.788;10.334;2022-10-19T14:27:35;24.05;60.07
28175;SHT30;59417;44.788;10.334;2022-10-19T14:30:01;24.05;60.25
28175;SHT30;59417;44.788;10.334;2022-10-19T14:32:28;24.00;61.57
28175;SHT30;59417;44.788;10.334;2022-10-19T14:34:59;23.92;60.64
28175;SHT30;59417;44.788;10.334;2022-10-19T14:37:26;23.97;60.82
28175;SHT30;59417;44.788;10.334;2022-10-19T14:39:59;23.90;59.83
28175;SHT30;59417;44.788;10.334;2022-10-19T14:42:35;23.87;60.46
28175;SHT30;59417;44.788;10.334;2022-10-19T14:45:02;23.82;61.06
28175;SHT30;59417;44.788;10.334;2022-10-19T14:47:27;23.80;60.69
28175;SHT30;59417;44.788;10.334;2022-10-19T14:49:55;23.75;61.41
28175;SHT30;59417;44.788;10.334;2022-10-19T14:52:39;23.73;61.62
28175;SHT30;59417;44.788;10.334;2022-10-19T14:55:10;23.73;60.69
28175;SHT30;59417;44.788;10.334;2022-10-19T14:57:39;23.68;60.60
28175;SHT30;59417;44.788;10.334;2022-10-19T15:00:15;23.61;61.55
28175;SHT30;59417;44.788;10.334;2022-10-19T15:02:46;23.63;61.30
28175;SHT30;59417;44.788;10.334;2022-10-19T15:05:25;23.55;62.10
28175;SHT30;59417;44.788;10.334;2022-10-19T15:07:52;23.43;62.67
28175;SHT30;59417;44.788;10.334;2022-10-19T15:10:25;23.33;63.03
28175;SHT30;59417;44.788;10.334;2022-10-19T15:12:57;23.31;63.84
28175;SHT30;59417;44.788;10.334;2022-10-19T15:15:27;23.30;64.41
28175;SHT30;59417;44.788;10.334;2022-10-19T15:20:33;23.33;63.84
28175;SHT30;59417;44.788;10.334;2022-10-19T15:23:00;23.33;63.77
28175;SHT30;59417;44.788;10.334;2022-10-19T15:25:34;23.26;64.19
28175;SHT30;59417;44.788;10.334;2022-10-19T15:28:31;23.23;64.46
28175;SHT30;59417;44.788;10.334;2022-10-19T15:31:03;23.23;64.52
28175;SHT30;59417;44.788;10.334;2022-10-19T15:33:36;23.19;64.97
28175;SHT30;59417;44.788;10.334;2022-10-19T15:36:07;23.16;64.93
28175;SHT30;59417;44.788;10.334;2022-10-19T15:38:33;23.13;64.44
28175;SHT30;59417;44.788;10.334;2022-10-19T15:41:01;23.07;65.13
28175;SHT30;59417;44.788;10.334;2022-10-19T15:43:34;23.02;65.30
28175;SHT30;59417;44.788;10.334;2022-10-19T15:56:21;22.85;65.91
28175;SHT30;59417;44.788;10.334;2022-10-19T15:58:52;22.79;66.42
28175;SHT30;59417;44.788;10.334;2022-10-19T16:01:23;22.69;67.43
28175;SHT30;59417;44.788;10.334;2022-10-19T16:03:51;22.61;67.96
28175;SHT30;59417;44.788;10.334;2022-10-19T16:06:18;22.54;67.90
28175;SHT30;59417;44.788;10.334;2022-10-19T16:08:45;22.51;68.24
28175;SHT30;59417;44.788;10.334;2022-10-19T16:11:16;22.45;68.79
28175;SHT30;59417;44.788;10.334;2022-10-19T16:13:41;22.39;69.05
28175;SHT30;59417;44.788;10.334;2022-10-19T16:16:09;22.31;69.01
28175;SHT30;59417;44.788;10.334;2022-10-19T16:18:35;22.28;69.38
28175;SHT30;59417;44.788;10.334;2022-10-19T16:21:01;22.20;69.62
28175;SHT30;59417;44.788;10.334;2022-10-19T16:23:27;22.16;69.77
28175;SHT30;59417;44.788;10.334;2022-10-19T16:25:52;22.10;69.86
28175;SHT30;59417;44.788;10.334;2022-10-19T16:28:19;22.07;70.52
28175;SHT30;59417;44.788;10.334;2022-10-19T16:30:53;21.98;70.22
28175;SHT30;59417;44.788;10.334;2022-10-19T16:33:19;21.93;70.44
28175;SHT30;59417;44.788;10.334;2022-10-19T16:35:45;21.89;70.56
28175;SHT30;59417;44.788;10.334;2022-10-19T16:38:11;21.86;69.60
28175;SHT30;59417;44.788;10.334;2022-10-19T16:40:36;21.76;70.09
28175;SHT30;59417;44.788;10.334;2022-10-19T16:43:02;21.70;69.82
28175;SHT30;59417;44.788;10.334;2022-10-19T16:45:28;21.74;70.37
28175;SHT30;59417;44.788;10.334;2022-10-19T16:47:54;21.78;70.58
28175;SHT30;59417;44.788;10.334;2022-10-19T16:50:19;21.76;70.55
28175;SHT30;59417;44.788;10.334;2022-10-19T16:52:45;21.74;71.95
28175;SHT30;59417;44.788;10.334;2022-10-19T16:55:11;21.69;73.95
28175;SHT30;59417;44.788;10.334;2022-10-19T16:57:37;21.57;72.12
28175;SHT30;59417;44.788;10.334;2022-10-19T17:00:03;21.57;72.81
28175;SHT30;59417;44.788;10.334;2022-10-19T17:02:29;21.50;72.63
28175;SHT30;59417;44.788;10.334;2022-10-19T17:04:55;21.43;72.80
28175;SHT30;59417;44.788;10.334;2022-10-19T17:07:21;21.35;72.68
28175;SHT30;59417;44.788;10.334;2022-10-19T17:09:46;21.26;71.97
28175;SHT30;59417;44.788;10.334;2022-10-19T17:12:13;21.26;71.07
28175;SHT30;59417;44.788;10.334;2022-10-19T17:14:40;21.18;71.07
28175;SHT30;59417;44.788;10.334;2022-10-19T17:17:06;21.19;71.09
28175;SHT30;59417;44.788;10.334;2022-10-19T17:19:32;21.19;72.01
28175;SHT30;59417;44.788;10.334;2022-10-19T17:21:58;21.16;73.30
28175;SHT30;59417;44.788;10.334;2022-10-19T17:24:25;21.09;73.00
28175;SHT30;59417;44.788;10.334;2022-10-19T17:26:51;21.05;73.23
28175;SHT30;59417;44.788;10.334;2022-10-19T17:29:19;21.01;73.77
28175;SHT30;59417;44.788;10.334;2022-10-19T17:31:45;20.96;72.47
28175;SHT30;59417;44.788;10.334;2022-10-19T17:34:11;20.90;72.63
28175;SHT30;59417;44.788;10.334;2022-10-19T17:36:39;20.82;72.78
28175;SHT30;59417;44.788;10.334;2022-10-19T17:39:07;20.78;72.90
28175;SHT30;59417;44.788;10.334;2022-10-19T17:41:34;20.77;74.03
28175;SHT30;59417;44.788;10.334;2022-10-19T17:44:02;20.74;73.67
28175;SHT30;59417;44.788;10.334;2022-10-19T17:46:32;20.68;73.68
28175;SHT30;59417;44.788;10.334;2022-10-19T17:48:58;20.64;73.67
28175;SHT30;59417;44.788;10.334;2022-10-19T17:51:27;20.67;73.37
28175;SHT30;59417;44.788;10.334;2022-10-19T17:53:59;20.70;73.66
28175;SHT30;59417;44.788;10.334;2022-10-19T17:56:26;20.70;74.16
28175;SHT30;59417;44.788;10.334;2022-10-19T17:58:52;20.67;73.68
28175;SHT30;59417;44.788;10.334;2022-10-19T18:01:20;20.62;74.11
28175;SHT30;59417;44.788;10.334;2022-10-19T18:03:47;20.55;74.30
28175;SHT30;59417;44.788;10.334;2022-10-19T18:06:39;20.51;74.22
28175;SHT30;59417;44.788;10.334;2022-10-19T18:09:09;20.57;74.22
28175;SHT30;59417;44.788;10.334;2022-10-19T18:11:42;20.58;74.02
28175;SHT30;59417;44.788;10.334;2022-10-19T18:14:10;20.65;73.73
28175;SHT30;59417;44.788;10.334;2022-10-19T18:16:42;20.65;73.87